createdAt,value
2018-04-29T00:00:56.408Z,14.26
2018-04-29T00:01:56.573Z,14.23
2018-04-29T00:02:56.742Z,14.12
2018-04-29T00:03:56.906Z,14.18
2018-04-29T00:04:57.128Z,14.15
2018-04-29T00:05:57.281Z,14.15
2018-04-29T00:06:57.451Z,14.14
2018-04-29T00:07:57.619Z,14.17
2018-04-29T00:08:57.779Z,14.14
2018-04-29T00:11:40.373Z,14.15
2018-04-29T00:12:40.537Z,14.04
2018-04-29T00:13:40.719Z,14.07
2018-04-29T00:14:40.902Z,14.04
2018-04-29T00:15:41.069Z,13.99
2018-04-29T00:16:41.237Z,13.92
2018-04-29T00:17:41.405Z,13.95
2018-04-29T00:18:41.565Z,13.89
2018-04-29T00:19:41.735Z,13.95
2018-04-29T00:20:41.894Z,13.77
2018-04-29T00:21:42.084Z,13.85
2018-04-29T00:22:42.259Z,13.86
2018-04-29T00:23:42.424Z,13.87
2018-04-29T00:24:42.585Z,13.77
2018-04-29T00:25:42.749Z,13.83
2018-04-29T00:28:15.020Z,13.79
2018-04-29T00:29:15.188Z,13.79
2018-04-29T00:30:15.350Z,13.79
2018-04-29T00:31:15.515Z,13.78
2018-04-29T00:32:15.684Z,13.71
2018-04-29T00:33:15.850Z,13.74
2018-04-29T00:34:16.017Z,13.70
2018-04-29T00:35:16.184Z,13.77
2018-04-29T00:36:16.348Z,13.72
2018-04-29T00:37:16.519Z,13.72
2018-04-29T00:38:16.675Z,13.78
2018-04-29T00:39:16.842Z,13.65
2018-04-29T00:40:17.006Z,13.67
2018-04-29T00:41:17.170Z,13.65
2018-04-29T00:42:17.341Z,13.68
2018-04-29T00:44:49.904Z,13.63
2018-04-29T00:45:50.077Z,13.68
2018-04-29T00:46:50.251Z,13.60
2018-04-29T00:47:50.409Z,13.65
2018-04-29T00:48:50.575Z,13.62
2018-04-29T00:49:50.742Z,13.62
2018-04-29T00:50:50.948Z,13.63
2018-04-29T00:51:51.104Z,13.63
2018-04-29T00:52:51.478Z,13.62
2018-04-29T00:53:51.394Z,13.60
2018-04-29T00:54:51.564Z,13.59
2018-04-29T00:55:52.728Z,13.63
2018-04-29T00:56:51.893Z,13.57
2018-04-29T00:57:52.056Z,13.60
2018-04-29T00:58:52.232Z,13.60
2018-04-29T01:01:34.518Z,13.62
2018-04-29T01:02:34.686Z,13.67
2018-04-29T01:03:34.852Z,13.62
2018-04-29T01:04:35.021Z,13.60
2018-04-29T01:05:35.180Z,13.59
2018-04-29T01:06:35.355Z,13.62
2018-04-29T01:07:35.524Z,13.62
2018-04-29T01:08:35.677Z,13.63
2018-04-29T01:09:35.857Z,13.62
2018-04-29T01:10:36.023Z,13.60
2018-04-29T01:11:36.179Z,13.70
2018-04-29T01:12:36.364Z,13.68
2018-04-29T01:13:36.527Z,13.62
2018-04-29T01:14:36.694Z,13.59
2018-04-29T01:15:36.909Z,13.53
2018-04-29T01:18:19.289Z,13.49
2018-04-29T01:19:19.527Z,13.49
2018-04-29T01:20:19.638Z,13.54
2018-04-29T01:21:19.831Z,13.49
2018-04-29T01:22:19.996Z,13.46
2018-04-29T01:23:20.156Z,13.53
2018-04-29T01:24:20.349Z,13.46
2018-04-29T01:25:20.520Z,13.50
2018-04-29T01:26:20.699Z,13.33
2018-04-29T01:27:20.898Z,13.33
2018-04-29T01:28:21.038Z,13.31
2018-04-29T01:29:21.200Z,13.28
2018-04-29T01:30:21.354Z,13.22
2018-04-29T01:31:21.542Z,13.27
2018-04-29T01:32:21.907Z,13.20
2018-04-29T01:35:04.266Z,13.18
2018-04-29T01:36:04.433Z,13.13
2018-04-29T01:37:04.595Z,13.04
2018-04-29T01:38:04.760Z,13.04
2018-04-29T01:39:04.922Z,13.03
2018-04-29T01:40:05.085Z,13.03
2018-04-29T01:41:05.305Z,13.05
2018-04-29T01:42:05.461Z,13.04
2018-04-29T01:43:05.627Z,12.95
2018-04-29T01:44:05.885Z,13.05
2018-04-29T01:45:05.931Z,13.04
2018-04-29T01:46:06.090Z,13.04
2018-04-29T01:47:06.254Z,13.08
2018-04-29T01:48:06.419Z,13.05
2018-04-29T01:49:06.581Z,13.04
2018-04-29T01:51:48.884Z,13.03
2018-04-29T01:52:49.048Z,13.09
2018-04-29T01:53:49.231Z,13.16
2018-04-29T01:54:49.402Z,13.04
2018-04-29T01:55:49.571Z,13.05
2018-04-29T01:56:49.736Z,13.05
2018-04-29T01:57:49.904Z,13.11
2018-04-29T01:58:50.075Z,12.86
2018-04-29T01:59:50.246Z,12.76
2018-04-29T02:00:50.412Z,12.72
2018-04-29T02:01:50.578Z,12.75
2018-04-29T02:02:50.748Z,12.70
2018-04-29T02:03:50.914Z,12.72
2018-04-29T02:04:51.072Z,12.70
2018-04-29T02:05:51.230Z,12.76
2018-04-29T02:08:23.795Z,12.78
2018-04-29T02:09:23.976Z,12.67
2018-04-29T02:10:24.124Z,12.78
2018-04-29T02:11:24.291Z,12.65
2018-04-29T02:12:24.453Z,12.62
2018-04-29T02:13:24.615Z,12.55
2018-04-29T02:14:24.786Z,12.68
2018-04-29T02:15:24.949Z,12.62
2018-04-29T02:16:25.113Z,12.61
2018-04-29T02:17:25.278Z,12.57
2018-04-29T02:19:57.841Z,12.55
2018-04-29T02:20:58.021Z,12.54
2018-04-29T02:21:58.172Z,12.55
2018-04-29T02:22:58.356Z,12.53
2018-04-29T02:23:58.518Z,12.43
2018-04-29T02:24:58.682Z,12.39
2018-04-29T02:25:58.833Z,12.49
2018-04-29T02:26:59.014Z,12.46
2018-04-29T02:27:59.177Z,12.50
2018-04-29T02:28:59.339Z,12.42
2018-04-29T02:31:41.622Z,12.42
2018-04-29T02:32:41.818Z,12.40
2018-04-29T02:33:41.986Z,12.45
2018-04-29T02:34:42.186Z,12.45
2018-04-29T02:35:42.358Z,12.28
2018-04-29T02:36:42.522Z,12.29
2018-04-29T02:37:42.686Z,12.25
2018-04-29T02:38:42.863Z,12.32
2018-04-29T02:39:43.043Z,12.29
2018-04-29T02:40:43.211Z,12.29
2018-04-29T02:41:43.383Z,12.24
2018-04-29T02:42:43.550Z,12.24
2018-04-29T02:43:43.712Z,12.32
2018-04-29T02:44:43.884Z,12.32
2018-04-29T02:45:44.045Z,12.27
2018-04-29T02:49:44.937Z,12.31
2018-04-29T02:50:44.734Z,12.29
2018-04-29T02:51:44.897Z,12.25
2018-04-29T02:52:45.063Z,12.28
2018-04-29T02:53:45.227Z,12.31
2018-04-29T02:54:45.390Z,12.31
2018-04-29T02:55:45.554Z,12.31
2018-04-29T02:56:45.719Z,12.29
2018-04-29T02:57:45.882Z,12.29
2018-04-29T02:58:46.843Z,12.25
2018-04-29T02:59:46.169Z,12.29
2018-04-29T03:00:46.333Z,12.28
2018-04-29T03:01:46.516Z,12.27
2018-04-29T03:02:46.660Z,12.29
2018-04-29T03:03:46.828Z,12.25
2018-04-29T03:06:19.405Z,12.25
2018-04-29T03:07:19.571Z,12.28
2018-04-29T03:08:19.732Z,12.15
2018-04-29T03:09:19.893Z,12.27
2018-04-29T03:10:20.057Z,12.29
2018-04-29T03:11:20.234Z,12.25
2018-04-29T03:12:20.390Z,12.25
2018-04-29T03:13:20.552Z,12.29
2018-04-29T03:14:20.716Z,12.18
2018-04-29T03:15:20.879Z,12.12
2018-04-29T03:16:21.061Z,12.13
2018-04-29T03:17:21.225Z,12.07
2018-04-29T03:18:21.391Z,12.17
2018-04-29T03:19:21.551Z,12.13
2018-04-29T03:20:21.706Z,12.12
2018-04-29T03:23:03.980Z,12.15
2018-04-29T03:24:04.145Z,12.06
2018-04-29T03:25:04.308Z,12.04
2018-04-29T03:26:04.474Z,12.04
2018-04-29T03:27:04.636Z,11.94
2018-04-29T03:28:04.810Z,12.00
2018-04-29T03:29:05.037Z,12.02
2018-04-29T03:30:05.158Z,11.95
2018-04-29T03:31:05.324Z,11.95
2018-04-29T03:32:05.491Z,11.91
2018-04-29T03:33:05.649Z,11.95
2018-04-29T03:34:05.795Z,12.00
2018-04-29T03:35:05.960Z,11.99
2018-04-29T03:36:06.118Z,11.94
2018-04-29T03:37:06.278Z,11.94
2018-04-29T03:39:48.853Z,11.86
2018-04-29T03:40:49.027Z,11.75
2018-04-29T03:41:49.193Z,11.87
2018-04-29T03:42:49.346Z,11.72
2018-04-29T03:43:49.519Z,11.60
2018-04-29T03:44:49.682Z,11.60
2018-04-29T03:45:49.843Z,11.63
2018-04-29T03:46:50.015Z,11.55
2018-04-29T03:47:50.181Z,11.55
2018-04-29T03:48:50.349Z,11.50
2018-04-29T03:51:32.607Z,11.57
2018-04-29T03:52:32.781Z,11.54
2018-04-29T03:53:32.931Z,11.55
2018-04-29T03:54:33.106Z,11.50
2018-04-29T03:55:33.269Z,11.45
2018-04-29T03:56:33.432Z,11.45
2018-04-29T03:57:33.600Z,11.48
2018-04-29T03:58:33.767Z,11.47
2018-04-29T03:59:33.921Z,11.47
2018-04-29T04:00:34.099Z,11.45
2018-04-29T04:01:34.264Z,11.52
2018-04-29T04:02:34.435Z,11.51
2018-04-29T04:03:34.597Z,11.51
2018-04-29T04:04:34.763Z,11.47
2018-04-29T04:05:34.924Z,11.43
2018-04-29T04:08:17.188Z,11.37
2018-04-29T04:09:17.348Z,11.40
2018-04-29T04:10:17.520Z,11.33
2018-04-29T04:11:17.677Z,11.36
2018-04-29T04:12:17.839Z,11.27
2018-04-29T04:13:18.019Z,11.35
2018-04-29T04:14:18.185Z,11.35
2018-04-29T04:15:18.342Z,11.36
2018-04-29T04:16:18.509Z,11.32
2018-04-29T04:17:18.673Z,11.35
2018-04-29T04:18:18.839Z,11.35
2018-04-29T04:19:18.999Z,11.36
2018-04-29T04:20:19.163Z,11.33
2018-04-29T04:21:19.324Z,11.32
2018-04-29T04:22:20.221Z,11.27
2018-04-29T04:25:01.802Z,11.17
2018-04-29T04:26:01.831Z,11.17
2018-04-29T04:27:02.016Z,11.15
2018-04-29T04:28:02.202Z,11.19
2018-04-29T04:29:02.239Z,11.18
2018-04-29T04:30:02.407Z,11.15
2018-04-29T04:31:02.568Z,11.10
2018-04-29T04:32:02.734Z,10.97
2018-04-29T04:33:02.893Z,11.10
2018-04-29T04:34:03.085Z,11.10
2018-04-29T04:36:45.605Z,11.10
2018-04-29T04:37:45.778Z,11.02
2018-04-29T04:38:45.943Z,10.97
2018-04-29T04:39:46.108Z,10.94
2018-04-29T04:40:46.275Z,10.93
2018-04-29T04:41:46.442Z,10.99
2018-04-29T04:42:46.602Z,10.92
2018-04-29T04:43:46.763Z,10.89
2018-04-29T04:44:46.933Z,10.87
2018-04-29T04:45:47.095Z,10.94
2018-04-29T04:46:47.255Z,11.04
2018-04-29T04:47:47.423Z,11.00
2018-04-29T04:48:47.590Z,11.00
2018-04-29T04:49:47.752Z,11.05
2018-04-29T04:50:47.922Z,10.99
2018-04-29T04:53:30.492Z,11.08
2018-04-29T04:54:30.656Z,11.04
2018-04-29T04:55:30.819Z,11.07
2018-04-29T04:56:30.988Z,11.05
2018-04-29T04:57:31.149Z,11.02
2018-04-29T04:58:31.313Z,11.08
2018-04-29T04:59:31.477Z,11.05
2018-04-29T05:00:31.659Z,11.10
2018-04-29T05:01:31.854Z,11.15
2018-04-29T05:02:32.029Z,11.17
2018-04-29T05:03:32.190Z,11.19
2018-04-29T05:04:32.353Z,11.33
2018-04-29T05:05:32.526Z,11.26
2018-04-29T05:06:32.678Z,11.32
2018-04-29T05:07:32.854Z,11.35
2018-04-29T05:10:15.157Z,11.29
2018-04-29T05:11:15.200Z,11.19
2018-04-29T05:12:15.363Z,11.26
2018-04-29T05:13:15.524Z,11.27
2018-04-29T05:14:15.690Z,11.23
2018-04-29T05:15:15.855Z,11.27
2018-04-29T05:16:16.014Z,11.26
2018-04-29T05:17:16.192Z,11.27
2018-04-29T05:18:16.366Z,11.29
2018-04-29T05:19:16.519Z,11.15
2018-04-29T05:20:16.691Z,11.12
2018-04-29T05:21:16.856Z,11.14
2018-04-29T05:22:17.103Z,11.18
2018-04-29T05:23:17.185Z,11.10
2018-04-29T05:24:17.346Z,11.12
2018-04-29T05:26:59.898Z,11.22
2018-04-29T05:28:00.061Z,11.15
2018-04-29T05:29:00.228Z,11.26
2018-04-29T05:30:00.395Z,11.30
2018-04-29T05:31:00.559Z,11.30
2018-04-29T05:32:00.720Z,11.27
2018-04-29T05:33:00.896Z,11.36
2018-04-29T05:34:01.047Z,11.45
2018-04-29T05:35:01.224Z,11.45
2018-04-29T05:36:01.397Z,11.54
2018-04-29T05:38:33.671Z,11.72
2018-04-29T05:39:33.832Z,11.72
2018-04-29T05:40:33.994Z,11.75
2018-04-29T05:41:34.158Z,11.83
2018-04-29T05:42:34.316Z,11.73
2018-04-29T05:43:34.485Z,11.47
2018-04-29T05:44:34.659Z,11.37
2018-04-29T05:45:34.813Z,11.44
2018-04-29T05:46:34.975Z,11.37
2018-04-29T05:47:35.137Z,11.48
2018-04-29T05:48:35.303Z,11.63
2018-04-29T05:49:35.470Z,11.99
2018-04-29T05:50:35.632Z,12.55
2018-04-29T05:51:35.797Z,13.27
2018-04-29T05:52:35.968Z,13.90
2018-04-29T05:55:08.244Z,15.43
2018-04-29T05:56:08.393Z,15.76
2018-04-29T05:57:08.568Z,16.20
2018-04-29T05:58:08.733Z,16.66
2018-04-29T05:59:08.894Z,17.04
2018-04-29T06:00:09.066Z,17.27
2018-04-29T06:01:09.226Z,17.16
2018-04-29T06:02:09.400Z,17.42
2018-04-29T06:03:09.558Z,17.74
2018-04-29T06:04:09.732Z,17.54
2018-04-29T06:05:09.893Z,17.68
2018-04-29T06:06:10.069Z,17.44
2018-04-29T06:07:10.221Z,16.86
2018-04-29T06:08:10.394Z,16.24
2018-04-29T06:09:10.560Z,15.55
2018-04-29T06:11:43.125Z,15.65
2018-04-29T06:12:43.294Z,15.91
2018-04-29T06:13:43.460Z,16.47
2018-04-29T06:14:43.622Z,16.75
2018-04-29T06:15:43.779Z,16.99
2018-04-29T06:16:43.954Z,17.14
2018-04-29T06:17:44.120Z,17.30
2018-04-29T06:18:44.288Z,17.39
2018-04-29T06:19:44.456Z,17.46
2018-04-29T06:20:44.624Z,17.57
2018-04-29T06:21:44.789Z,17.44
2018-04-29T06:22:44.961Z,17.16
2018-04-29T06:23:45.131Z,17.05
2018-04-29T06:24:45.301Z,17.19
2018-04-29T06:25:45.465Z,17.20
2018-04-29T06:28:17.752Z,17.01
2018-04-29T06:29:17.926Z,16.91
2018-04-29T06:30:18.141Z,16.74
2018-04-29T06:31:18.324Z,16.71
2018-04-29T06:32:18.576Z,16.60
2018-04-29T06:33:18.712Z,16.05
2018-04-29T06:34:18.886Z,15.40
2018-04-29T06:35:19.055Z,15.06
2018-04-29T06:36:19.243Z,14.96
2018-04-29T06:37:19.412Z,15.07
2018-04-29T06:39:51.681Z,14.47
2018-04-29T06:40:51.843Z,14.25
2018-04-29T06:41:52.008Z,14.37
2018-04-29T06:42:52.183Z,14.58
2018-04-29T06:43:52.351Z,14.63
2018-04-29T06:44:52.502Z,14.81
2018-04-29T06:45:52.693Z,14.86
2018-04-29T06:46:52.895Z,14.89
2018-04-29T06:47:53.025Z,14.92
2018-04-29T06:48:53.194Z,14.96
2018-04-29T06:49:53.359Z,14.72
2018-04-29T06:50:53.525Z,14.81
2018-04-29T06:51:53.691Z,14.91
2018-04-29T06:52:53.859Z,14.73
2018-04-29T06:53:54.026Z,14.62
2018-04-29T06:56:36.592Z,15.00
2018-04-29T06:57:36.761Z,15.21
2018-04-29T06:58:36.924Z,15.46
2018-04-29T06:59:37.090Z,15.59
2018-04-29T07:00:37.249Z,15.88
2018-04-29T07:01:37.421Z,16.02
2018-04-29T07:02:45.264Z,16.16
2018-04-29T07:03:37.809Z,16.15
2018-04-29T07:04:37.976Z,16.31
2018-04-29T07:05:38.146Z,16.39
2018-04-29T07:06:38.309Z,16.71
2018-04-29T07:07:38.478Z,16.74
2018-04-29T07:08:38.644Z,16.89
2018-04-29T07:09:38.810Z,17.08
2018-04-29T07:10:38.988Z,17.27
2018-04-29T07:11:39.156Z,17.31
2018-04-29T07:12:39.330Z,17.23
2018-04-29T07:13:39.506Z,16.83
2018-04-29T07:14:39.677Z,16.75
2018-04-29T07:15:39.836Z,16.78
2018-04-29T07:16:40.025Z,16.65
2018-04-29T07:19:12.320Z,16.51
2018-04-29T07:20:12.487Z,16.78
2018-04-29T07:21:12.648Z,16.72
2018-04-29T07:22:12.812Z,16.69
2018-04-29T07:23:12.981Z,16.75
2018-04-29T07:24:13.147Z,16.89
2018-04-29T07:25:13.313Z,16.89
2018-04-29T07:26:13.482Z,16.99
2018-04-29T07:27:13.651Z,17.26
2018-04-29T07:28:13.830Z,17.34
2018-04-29T07:29:14.018Z,17.15
2018-04-29T07:30:14.174Z,16.96
2018-04-29T07:31:14.343Z,16.79
2018-04-29T07:32:14.506Z,16.68
2018-04-29T07:33:14.679Z,16.51
2018-04-29T07:35:56.943Z,16.41
2018-04-29T07:36:57.113Z,16.21
2018-04-29T07:37:57.266Z,16.38
2018-04-29T07:38:57.467Z,16.35
2018-04-29T07:39:57.682Z,16.42
2018-04-29T07:40:57.859Z,16.53
2018-04-29T07:41:57.983Z,16.53
2018-04-29T07:42:58.151Z,16.83
2018-04-29T07:43:58.323Z,16.57
2018-04-29T07:44:58.496Z,16.81
2018-04-29T07:47:41.051Z,17.20
2018-04-29T07:48:41.292Z,17.31
2018-04-29T07:49:41.346Z,17.41
2018-04-29T07:50:41.632Z,17.57
2018-04-29T07:51:49.146Z,17.76
2018-04-29T07:52:41.844Z,17.38
2018-04-29T07:53:41.993Z,17.26
2018-04-29T07:54:42.154Z,17.42
2018-04-29T07:55:42.350Z,17.24
2018-04-29T07:56:42.506Z,17.45
2018-04-29T07:57:42.673Z,17.80
2018-04-29T07:58:42.863Z,17.86
2018-04-29T07:59:43.029Z,17.74
2018-04-29T08:00:43.271Z,17.87
2018-04-29T08:01:43.362Z,18.00
2018-04-29T08:05:43.970Z,18.40
2018-04-29T08:06:44.138Z,18.58
2018-04-29T08:07:44.370Z,18.60
2018-04-29T08:08:44.397Z,18.75
2018-04-29T08:09:44.574Z,18.89
2018-04-29T08:10:44.734Z,18.92
2018-04-29T08:11:44.898Z,19.18
2018-04-29T08:12:45.064Z,19.19
2018-04-29T08:13:45.245Z,18.75
2018-04-29T08:14:46.151Z,18.74
2018-04-29T08:15:46.284Z,18.59
2018-04-29T08:16:45.765Z,18.60
2018-04-29T08:17:45.937Z,18.50
2018-04-29T08:18:46.113Z,18.55
2018-04-29T08:19:46.299Z,18.56
2018-04-29T08:22:28.902Z,18.47
2018-04-29T08:23:29.084Z,18.40
2018-04-29T08:24:29.267Z,18.23
2018-04-29T08:25:29.443Z,18.29
2018-04-29T08:26:30.607Z,18.34
2018-04-29T08:27:29.761Z,18.43
2018-04-29T08:28:29.938Z,18.49
2018-04-29T08:29:30.115Z,18.47
2018-04-29T08:30:30.279Z,18.56
2018-04-29T08:31:31.106Z,18.52
2018-04-29T08:34:12.772Z,18.49
2018-04-29T08:35:12.945Z,18.50
2018-04-29T08:36:13.202Z,18.52
2018-04-29T08:37:13.278Z,18.56
2018-04-29T08:38:13.458Z,18.65
2018-04-29T08:39:13.660Z,18.74
2018-04-29T08:40:13.836Z,18.70
2018-04-29T08:41:14.006Z,18.63
2018-04-29T08:42:14.199Z,18.78
2018-04-29T08:43:14.438Z,18.73
2018-04-29T08:45:56.698Z,18.63
2018-04-29T08:46:56.742Z,18.62
2018-04-29T08:47:56.915Z,18.66
2018-04-29T08:49:04.536Z,18.80
2018-04-29T08:49:57.193Z,18.73
2018-04-29T08:50:57.366Z,18.59
2018-04-29T08:51:57.532Z,18.56
2018-04-29T08:52:57.701Z,18.59
2018-04-29T08:53:57.873Z,18.53
2018-04-29T08:54:58.124Z,18.52
2018-04-29T08:55:58.279Z,18.50
2018-04-29T08:57:05.832Z,18.60
2018-04-29T08:57:58.485Z,18.63
2018-04-29T08:58:58.669Z,18.68
2018-04-29T08:59:58.832Z,18.84
2018-04-29T09:00:58.998Z,18.93
2018-04-29T09:01:59.167Z,18.95
2018-04-29T09:02:59.342Z,19.11
2018-04-29T09:04:00.289Z,19.08
2018-04-29T09:04:59.621Z,19.26
2018-04-29T09:05:59.799Z,19.34
2018-04-29T09:07:00.639Z,19.39
2018-04-29T09:08:00.137Z,19.51
2018-04-29T09:09:00.325Z,19.47
2018-04-29T09:10:00.468Z,19.54
2018-04-29T09:11:00.641Z,19.76
2018-04-29T09:13:32.909Z,19.91
2018-04-29T09:14:33.083Z,19.95
2018-04-29T09:15:33.279Z,19.96
2018-04-29T09:16:33.431Z,20.10
2018-04-29T09:17:33.676Z,19.99
2018-04-29T09:18:33.769Z,20.04
2018-04-29T09:19:33.978Z,20.11
2018-04-29T09:20:34.170Z,20.14
2018-04-29T09:21:34.321Z,20.32
2018-04-29T09:22:36.473Z,20.25
2018-04-29T09:25:16.764Z,20.65
2018-04-29T09:26:16.940Z,20.65
2018-04-29T09:27:25.059Z,20.82
2018-04-29T09:28:17.217Z,20.96
2018-04-29T09:29:17.388Z,20.95
2018-04-29T09:30:17.569Z,21.06
2018-04-29T09:31:17.732Z,21.12
2018-04-29T09:32:17.898Z,21.27
2018-04-29T09:33:18.192Z,21.32
2018-04-29T09:34:18.239Z,21.51
2018-04-29T09:35:18.416Z,21.60
2018-04-29T09:36:18.620Z,21.55
2018-04-29T09:37:18.754Z,21.64
2018-04-29T09:40:02.017Z,21.75
2018-04-29T09:41:02.186Z,21.77
2018-04-29T09:42:02.346Z,21.82
2018-04-29T09:43:02.522Z,21.83
2018-04-29T09:44:02.695Z,22.06
2018-04-29T09:45:02.863Z,22.22
2018-04-29T09:46:03.040Z,22.26
2018-04-29T09:47:03.213Z,22.28
2018-04-29T09:48:03.390Z,22.44
2018-04-29T09:49:03.553Z,22.43
2018-04-29T09:51:45.912Z,22.54
2018-04-29T09:52:46.644Z,22.55
2018-04-29T09:53:46.192Z,22.47
2018-04-29T09:54:46.600Z,22.41
2018-04-29T09:55:46.558Z,22.39
2018-04-29T09:56:46.863Z,22.41
2018-04-29T09:57:46.943Z,22.53
2018-04-29T09:58:47.120Z,22.20
2018-04-29T09:59:47.290Z,22.29
2018-04-29T10:00:47.468Z,22.22
2018-04-29T10:01:55.599Z,22.29
2018-04-29T10:02:47.755Z,22.22
2018-04-29T10:03:47.928Z,22.29
2018-04-29T10:04:48.098Z,22.36
2018-04-29T10:05:48.265Z,22.43
2018-04-29T10:06:48.425Z,22.44
2018-04-29T10:07:48.601Z,22.53
2018-04-29T10:08:48.973Z,22.59
2018-04-29T10:09:48.947Z,22.59
2018-04-29T10:10:49.113Z,22.60
2018-04-29T10:11:50.309Z,22.60
2018-04-29T10:12:49.438Z,22.65
2018-04-29T10:13:49.616Z,22.70
2018-04-29T10:14:49.810Z,22.72
2018-04-29T10:15:49.977Z,22.87
2018-04-29T10:16:50.148Z,22.91
2018-04-29T10:17:59.270Z,22.96
2018-04-29T10:18:50.459Z,23.13
2018-04-29T10:19:50.605Z,23.23
2018-04-29T10:20:50.769Z,23.21
2018-04-29T10:21:50.948Z,23.10
2018-04-29T10:22:51.116Z,23.20
2018-04-29T10:23:51.286Z,23.18
2018-04-29T10:24:51.449Z,23.31
2018-04-29T10:25:51.629Z,22.91
2018-04-29T10:26:51.799Z,22.72
2018-04-29T10:27:59.925Z,22.38
2018-04-29T10:28:52.097Z,22.13
2018-04-29T10:29:52.262Z,21.93
2018-04-29T10:30:52.428Z,21.91
2018-04-29T10:31:53.428Z,21.76
2018-04-29T10:32:52.898Z,21.57
2018-04-29T10:33:52.933Z,21.60
2018-04-29T10:34:53.267Z,21.46
2018-04-29T10:35:53.164Z,21.51
2018-04-29T10:36:53.334Z,21.50
2018-04-29T10:37:53.504Z,21.60
2018-04-29T10:38:53.673Z,21.75
2018-04-29T10:40:02.696Z,21.69
2018-04-29T10:40:54.033Z,21.73
2018-04-29T10:41:54.205Z,21.72
2018-04-29T10:42:54.373Z,21.72
2018-04-29T10:43:54.543Z,21.70
2018-04-29T10:44:54.714Z,21.79
2018-04-29T10:46:02.369Z,21.69
2018-04-29T10:46:55.159Z,21.73
2018-04-29T10:48:02.406Z,21.75
2018-04-29T10:48:55.328Z,21.57
2018-04-29T10:49:56.034Z,21.58
2018-04-29T10:50:56.506Z,21.61
2018-04-29T10:51:56.904Z,21.70
2018-04-29T10:52:56.165Z,21.55
2018-04-29T10:53:56.313Z,21.57
2018-04-29T10:54:56.984Z,21.70
2018-04-29T10:55:56.728Z,21.85
2018-04-29T10:56:57.488Z,21.85
2018-04-29T10:57:56.918Z,21.95
2018-04-29T10:58:57.088Z,22.02
2018-04-29T10:59:57.379Z,22.07
2018-04-29T11:01:05.137Z,22.17
2018-04-29T11:01:57.544Z,22.25
2018-04-29T11:02:57.718Z,22.23
2018-04-29T11:04:05.138Z,22.18
2018-04-29T11:04:58.055Z,22.26
2018-04-29T11:05:58.221Z,22.28
2018-04-29T11:06:58.393Z,22.36
2018-04-29T11:08:06.014Z,22.55
2018-04-29T11:09:01.519Z,22.65
2018-04-29T11:09:58.827Z,22.65
2018-04-29T11:10:58.994Z,22.59
2018-04-29T11:11:59.166Z,22.65
2018-04-29T11:12:59.344Z,22.41
2018-04-29T11:13:59.507Z,22.28
2018-04-29T11:15:02.530Z,22.23
2018-04-29T11:15:59.813Z,22.22
2018-04-29T11:16:59.982Z,22.14
2018-04-29T11:18:00.153Z,22.10
2018-04-29T11:19:00.322Z,22.17
2018-04-29T11:20:00.492Z,22.29
2018-04-29T11:21:00.701Z,22.43
2018-04-29T11:22:00.872Z,22.63
2018-04-29T11:24:43.421Z,22.50
2018-04-29T11:25:43.580Z,22.32
2018-04-29T11:26:43.770Z,22.41
2018-04-29T11:27:43.943Z,22.59
2018-04-29T11:28:52.735Z,22.73
2018-04-29T11:29:44.357Z,22.93
2018-04-29T11:30:44.556Z,23.17
2018-04-29T11:31:44.695Z,23.13
2018-04-29T11:32:44.883Z,23.08
2018-04-29T11:33:45.042Z,22.94
2018-04-29T11:34:45.186Z,22.83
2018-04-29T11:35:46.352Z,22.84
2018-04-29T11:36:45.516Z,22.85
2018-04-29T11:37:45.714Z,22.85
2018-04-29T11:38:46.189Z,22.73
2018-04-29T11:39:45.986Z,22.63
2018-04-29T11:40:46.155Z,22.81
2018-04-29T11:41:46.353Z,22.84
2018-04-29T11:42:54.455Z,22.88
2018-04-29T11:43:46.672Z,22.88
2018-04-29T11:44:46.826Z,23.17
2018-04-29T11:45:47.126Z,23.13
2018-04-29T11:46:47.117Z,23.12
2018-04-29T11:47:47.294Z,23.09
2018-04-29T11:48:47.699Z,23.06
2018-04-29T11:49:47.703Z,23.09
2018-04-29T11:50:55.213Z,23.17
2018-04-29T11:51:47.888Z,23.21
2018-04-29T11:52:48.189Z,23.28
2018-04-29T11:53:55.715Z,23.51
2018-04-29T11:54:48.365Z,23.59
2018-04-29T11:55:49.222Z,23.51
2018-04-29T11:56:48.639Z,23.59
2018-04-29T11:57:48.797Z,23.69
2018-04-29T12:00:21.374Z,23.78
2018-04-29T12:01:21.546Z,23.69
2018-04-29T12:02:21.699Z,23.66
2018-04-29T12:03:21.885Z,23.76
2018-04-29T12:04:22.060Z,23.78
2018-04-29T12:05:22.541Z,23.86
2018-04-29T12:06:22.348Z,23.83
2018-04-29T12:07:22.607Z,23.91
2018-04-29T12:08:23.078Z,24.02
2018-04-29T12:09:23.400Z,24.08
2018-04-29T12:11:55.493Z,24.14
2018-04-29T12:13:03.707Z,24.05
2018-04-29T12:13:55.878Z,23.99
2018-04-29T12:14:56.070Z,23.80
2018-04-29T12:15:56.242Z,23.78
2018-04-29T12:16:56.438Z,23.78
2018-04-29T12:17:56.687Z,23.99
2018-04-29T12:18:56.792Z,24.14
2018-04-29T12:19:57.744Z,24.16
2018-04-29T12:20:57.161Z,24.20
2018-04-29T12:21:57.336Z,24.17
2018-04-29T12:22:57.502Z,24.32
2018-04-29T12:23:57.676Z,24.20
2018-04-29T12:24:57.904Z,24.13
2018-04-29T12:25:58.034Z,24.26
2018-04-29T12:26:58.191Z,24.38
2018-04-29T12:28:06.402Z,24.32
2018-04-29T12:28:58.678Z,24.39
2018-04-29T12:29:58.722Z,24.51
2018-04-29T12:30:58.897Z,24.58
2018-04-29T12:31:59.110Z,24.57
2018-04-29T12:32:59.253Z,24.54
2018-04-29T12:33:59.438Z,24.51
2018-04-29T12:34:59.611Z,24.54
2018-04-29T12:35:59.783Z,24.39
2018-04-29T12:36:59.948Z,24.42
2018-04-29T12:38:00.125Z,24.45
2018-04-29T12:40:42.416Z,24.38
2018-04-29T12:41:42.591Z,24.50
2018-04-29T12:42:42.761Z,24.58
2018-04-29T12:43:42.927Z,24.57
2018-04-29T12:44:43.093Z,24.54
2018-04-29T12:45:43.263Z,24.50
2018-04-29T12:46:43.462Z,24.45
2018-04-29T12:47:43.603Z,24.45
2018-04-29T12:48:43.773Z,24.60
2018-04-29T12:49:43.941Z,24.65
2018-04-29T12:50:44.115Z,24.68
2018-04-29T12:51:44.284Z,24.63
2018-04-29T12:52:44.459Z,24.68
2018-04-29T12:53:44.634Z,24.65
2018-04-29T12:54:44.806Z,24.60
2018-04-29T12:57:27.145Z,24.65
2018-04-29T12:58:27.312Z,24.69
2018-04-29T12:59:27.481Z,24.66
2018-04-29T13:00:27.667Z,24.51
2018-04-29T13:01:27.911Z,24.54
2018-04-29T13:02:28.006Z,24.65
2018-04-29T13:03:28.171Z,24.55
2018-04-29T13:04:28.349Z,24.74
2018-04-29T13:05:28.518Z,24.74
2018-04-29T13:06:28.708Z,24.74
2018-04-29T13:07:28.889Z,24.73
2018-04-29T13:08:29.066Z,24.85
2018-04-29T13:09:30.114Z,24.88
2018-04-29T13:10:29.411Z,24.99
2018-04-29T13:11:30.117Z,25.03
2018-04-29T13:14:11.957Z,25.10
2018-04-29T13:15:12.123Z,25.07
2018-04-29T13:16:12.180Z,25.07
2018-04-29T13:17:12.348Z,25.13
2018-04-29T13:18:12.528Z,25.10
2018-04-29T13:19:12.688Z,25.11
2018-04-29T13:20:12.859Z,25.16
2018-04-29T13:21:13.034Z,25.11
2018-04-29T13:22:13.203Z,25.14
2018-04-29T13:23:14.913Z,25.13
2018-04-29T13:26:54.003Z,25.14
2018-04-29T13:27:54.172Z,25.01
2018-04-29T13:28:54.342Z,24.78
2018-04-29T13:29:54.508Z,24.78
2018-04-29T13:30:54.681Z,24.80
2018-04-29T13:31:54.853Z,24.88
2018-04-29T13:32:55.027Z,25.07
2018-04-29T13:33:55.193Z,25.17
2018-04-29T13:34:55.664Z,25.06
2018-04-29T13:35:55.500Z,24.89
2018-04-29T13:36:55.674Z,25.04
2018-04-29T13:37:56.041Z,25.11
2018-04-29T13:38:56.008Z,25.18
2018-04-29T13:39:56.177Z,25.16
2018-04-29T13:40:56.353Z,25.38
2018-04-29T13:43:38.635Z,25.47
2018-04-29T13:44:38.803Z,25.50
2018-04-29T13:45:39.044Z,25.32
2018-04-29T13:46:39.108Z,25.36
2018-04-29T13:47:39.278Z,25.23
2018-04-29T13:48:39.446Z,25.25
2018-04-29T13:49:39.615Z,25.18
2018-04-29T13:50:39.785Z,25.23
2018-04-29T13:51:39.967Z,25.33
2018-04-29T13:52:40.141Z,25.32
2018-04-29T13:53:40.342Z,25.47
2018-04-29T13:54:40.553Z,25.41
2018-04-29T13:55:40.675Z,25.25
2018-04-29T13:56:40.886Z,25.25
2018-04-29T13:57:41.006Z,25.26
2018-04-29T14:00:14.032Z,25.22
2018-04-29T14:01:13.705Z,25.22
2018-04-29T14:02:13.870Z,25.32
2018-04-29T14:03:22.284Z,25.26
2018-04-29T14:04:14.255Z,25.28
2018-04-29T14:05:14.433Z,25.40
2018-04-29T14:06:14.637Z,25.44
2018-04-29T14:07:14.822Z,25.58
2018-04-29T14:08:14.963Z,25.44
2018-04-29T14:09:15.123Z,25.47
2018-04-29T14:10:23.340Z,25.22
2018-04-29T14:11:15.436Z,25.08
2018-04-29T14:12:15.608Z,25.11
2018-04-29T14:13:15.784Z,25.10
2018-04-29T14:14:15.951Z,25.13
2018-04-29T14:15:16.117Z,25.10
2018-04-29T14:16:24.058Z,25.17